sensor_id;sensor_type;location;lat;lon;timestamp;P1;durP1;ratioP1;P2;durP2;ratioP2
37701;SDS011;23548;51.196;6.838;2023-08-20T00:01:28;21.45;;;15.15;;
37701;SDS011;23548;51.196;6.838;2023-08-20T00:03:54;20.55;;;15.25;;
37701;SDS011;23548;51.196;6.838;2023-08-20T00:06:21;21.98;;;16.05;;
37701;SDS011;23548;51.196;6.838;2023-08-20T00:08:47;24.23;;;16.27;;
37701;SDS011;23548;51.196;6.838;2023-08-20T00:11:13;24.25;;;15.82;;
37701;SDS011;23548;51.196;6.838;2023-08-20T00:13:39;18.75;;;15.52;;
37701;SDS011;23548;51.196;6.838;2023-08-20T00:16:05;23.40;;;16.92;;
37701;SDS011;23548;51.196;6.838;2023-08-20T00:18:32;19.95;;;14.52;;
37701;SDS011;23548;51.196;6.838;2023-08-20T00:20:58;20.80;;;15.35;;
37701;SDS011;23548;51.196;6.838;2023-08-20T00:23:25;20.98;;;15.52;;
37701;SDS011;23548;51.196;6.838;2023-08-20T00:25:51;25.25;;;16.35;;
37701;SDS011;23548;51.196;6.838;2023-08-20T00:28:19;23.48;;;15.68;;
37701;SDS011;23548;51.196;6.838;2023-08-20T00:30:45;23.10;;;16.50;;
37701;SDS011;23548;51.196;6.838;2023-08-20T00:33:11;20.00;;;16.13;;
37701;SDS011;23548;51.196;6.838;2023-08-20T00:35:37;24.45;;;16.48;;
37701;SDS011;23548;51.196;6.838;2023-08-20T00:38:03;24.02;;;17.35;;
37701;SDS011;23548;51.196;6.838;2023-08-20T00:40:30;26.05;;;16.98;;
37701;SDS011;23548;51.196;6.838;2023-08-20T00:42:56;21.83;;;15.43;;
37701;SDS011;23548;51.196;6.838;2023-08-20T00:45:22;24.23;;;16.42;;
37701;SDS011;23548;51.196;6.838;2023-08-20T00:47:48;24.10;;;15.23;;
37701;SDS011;23548;51.196;6.838;2023-08-20T00:50:14;25.38;;;17.30;;
37701;SDS011;23548;51.196;6.838;2023-08-20T00:52:41;30.90;;;18.92;;
37701;SDS011;23548;51.196;6.838;2023-08-20T00:55:11;27.63;;;17.95;;
37701;SDS011;23548;51.196;6.838;2023-08-20T00:57:38;30.00;;;19.40;;
37701;SDS011;23548;51.196;6.838;2023-08-20T01:00:05;26.48;;;19.08;;
37701;SDS011;23548;51.196;6.838;2023-08-20T01:02:35;26.98;;;19.65;;
37701;SDS011;23548;51.196;6.838;2023-08-20T01:05:02;27.27;;;19.48;;
37701;SDS011;23548;51.196;6.838;2023-08-20T01:07:33;25.67;;;19.15;;
37701;SDS011;23548;51.196;6.838;2023-08-20T01:13:07;26.65;;;20.88;;
37701;SDS011;23548;51.196;6.838;2023-08-20T01:15:33;29.42;;;22.05;;
37701;SDS011;23548;51.196;6.838;2023-08-20T01:27:27;39.10;;;24.08;;
37701;SDS011;23548;51.196;6.838;2023-08-20T01:30:13;29.77;;;23.35;;
37701;SDS011;23548;51.196;6.838;2023-08-20T01:32:40;37.03;;;23.30;;
37701;SDS011;23548;51.196;6.838;2023-08-20T01:35:08;35.10;;;24.08;;
37701;SDS011;23548;51.196;6.838;2023-08-20T01:37:38;28.80;;;22.70;;
37701;SDS011;23548;51.196;6.838;2023-08-20T01:40:05;28.77;;;22.80;;
37701;SDS011;23548;51.196;6.838;2023-08-20T01:42:33;29.60;;;21.55;;
37701;SDS011;23548;51.196;6.838;2023-08-20T01:44:59;27.50;;;20.50;;
37701;SDS011;23548;51.196;6.838;2023-08-20T01:47:25;27.20;;;19.73;;
37701;SDS011;23548;51.196;6.838;2023-08-20T01:49:50;31.13;;;21.67;;
37701;SDS011;23548;51.196;6.838;2023-08-20T01:52:16;30.00;;;20.92;;
37701;SDS011;23548;51.196;6.838;2023-08-20T01:54:42;28.30;;;20.98;;
37701;SDS011;23548;51.196;6.838;2023-08-20T01:57:07;24.92;;;19.88;;
37701;SDS011;23548;51.196;6.838;2023-08-20T01:59:33;31.45;;;20.70;;
37701;SDS011;23548;51.196;6.838;2023-08-20T02:01:59;26.73;;;20.13;;
37701;SDS011;23548;51.196;6.838;2023-08-20T02:04:25;30.48;;;20.63;;
37701;SDS011;23548;51.196;6.838;2023-08-20T02:06:50;24.42;;;19.15;;
37701;SDS011;23548;51.196;6.838;2023-08-20T02:09:16;26.60;;;19.88;;
37701;SDS011;23548;51.196;6.838;2023-08-20T02:11:44;26.35;;;20.73;;
37701;SDS011;23548;51.196;6.838;2023-08-20T02:14:10;27.23;;;20.42;;
37701;SDS011;23548;51.196;6.838;2023-08-20T02:16:36;26.25;;;19.65;;
37701;SDS011;23548;51.196;6.838;2023-08-20T02:19:02;25.55;;;20.10;;
37701;SDS011;23548;51.196;6.838;2023-08-20T02:21:28;29.33;;;20.02;;
37701;SDS011;23548;51.196;6.838;2023-08-20T02:23:54;26.73;;;21.30;;
37701;SDS011;23548;51.196;6.838;2023-08-20T02:26:20;25.55;;;20.35;;
37701;SDS011;23548;51.196;6.838;2023-08-20T02:28:45;25.65;;;20.88;;
37701;SDS011;23548;51.196;6.838;2023-08-20T02:31:11;26.45;;;18.85;;
37701;SDS011;23548;51.196;6.838;2023-08-20T02:33:37;24.63;;;18.50;;
37701;SDS011;23548;51.196;6.838;2023-08-20T02:36:03;29.58;;;22.05;;
37701;SDS011;23548;51.196;6.838;2023-08-20T02:38:29;25.77;;;19.70;;
37701;SDS011;23548;51.196;6.838;2023-08-20T02:40:55;22.40;;;18.58;;
37701;SDS011;23548;51.196;6.838;2023-08-20T02:43:20;22.05;;;18.67;;
37701;SDS011;23548;51.196;6.838;2023-08-20T02:45:46;26.88;;;19.30;;
37701;SDS011;23548;51.196;6.838;2023-08-20T02:48:13;26.58;;;21.13;;
37701;SDS011;23548;51.196;6.838;2023-08-20T02:50:39;23.13;;;18.25;;
37701;SDS011;23548;51.196;6.838;2023-08-20T02:53:05;27.02;;;20.15;;
37701;SDS011;23548;51.196;6.838;2023-08-20T02:55:31;27.42;;;20.40;;
37701;SDS011;23548;51.196;6.838;2023-08-20T02:57:58;31.40;;;20.33;;
37701;SDS011;23548;51.196;6.838;2023-08-20T03:00:23;28.52;;;20.73;;
37701;SDS011;23548;51.196;6.838;2023-08-20T03:02:49;29.55;;;20.27;;
37701;SDS011;23548;51.196;6.838;2023-08-20T03:05:15;27.25;;;20.02;;
37701;SDS011;23548;51.196;6.838;2023-08-20T03:07:41;23.38;;;20.10;;
37701;SDS011;23548;51.196;6.838;2023-08-20T03:10:07;26.20;;;21.10;;
37701;SDS011;23548;51.196;6.838;2023-08-20T03:12:33;27.77;;;20.23;;
37701;SDS011;23548;51.196;6.838;2023-08-20T03:14:59;30.48;;;21.80;;
37701;SDS011;23548;51.196;6.838;2023-08-20T03:17:25;28.83;;;20.23;;
37701;SDS011;23548;51.196;6.838;2023-08-20T03:19:54;30.10;;;21.00;;
37701;SDS011;23548;51.196;6.838;2023-08-20T03:22:22;26.40;;;20.35;;
37701;SDS011;23548;51.196;6.838;2023-08-20T03:24:48;26.45;;;20.45;;
37701;SDS011;23548;51.196;6.838;2023-08-20T03:27:15;27.48;;;21.30;;
37701;SDS011;23548;51.196;6.838;2023-08-20T03:29:41;29.45;;;20.27;;
37701;SDS011;23548;51.196;6.838;2023-08-20T03:32:06;29.63;;;20.88;;
37701;SDS011;23548;51.196;6.838;2023-08-20T03:34:32;26.77;;;19.15;;
37701;SDS011;23548;51.196;6.838;2023-08-20T03:36:58;21.95;;;17.52;;
37701;SDS011;23548;51.196;6.838;2023-08-20T03:39:23;26.13;;;16.45;;
37701;SDS011;23548;51.196;6.838;2023-08-20T03:41:50;21.73;;;16.48;;
37701;SDS011;23548;51.196;6.838;2023-08-20T03:44:15;26.45;;;17.13;;
37701;SDS011;23548;51.196;6.838;2023-08-20T03:46:41;27.17;;;15.77;;
37701;SDS011;23548;51.196;6.838;2023-08-20T03:49:07;26.30;;;16.23;;
37701;SDS011;23548;51.196;6.838;2023-08-20T03:51:33;21.90;;;16.35;;
37701;SDS011;23548;51.196;6.838;2023-08-20T03:53:59;23.20;;;16.75;;
37701;SDS011;23548;51.196;6.838;2023-08-20T03:56:25;20.77;;;16.92;;
37701;SDS011;23548;51.196;6.838;2023-08-20T03:58:50;25.15;;;16.80;;
37701;SDS011;23548;51.196;6.838;2023-08-20T04:01:18;21.73;;;16.10;;
37701;SDS011;23548;51.196;6.838;2023-08-20T04:03:45;21.20;;;16.02;;
37701;SDS011;23548;51.196;6.838;2023-08-20T04:06:12;22.02;;;16.77;;
37701;SDS011;23548;51.196;6.838;2023-08-20T04:08:37;21.27;;;16.90;;
37701;SDS011;23548;51.196;6.838;2023-08-20T04:11:03;22.02;;;16.45;;
37701;SDS011;23548;51.196;6.838;2023-08-20T04:13:29;21.30;;;15.80;;
37701;SDS011;23548;51.196;6.838;2023-08-20T04:15:55;24.13;;;16.05;;
37701;SDS011;23548;51.196;6.838;2023-08-20T04:18:21;21.95;;;16.65;;
37701;SDS011;23548;51.196;6.838;2023-08-20T04:20:49;20.98;;;16.25;;
37701;SDS011;23548;51.196;6.838;2023-08-20T04:23:16;23.88;;;16.85;;
37701;SDS011;23548;51.196;6.838;2023-08-20T04:25:41;23.20;;;15.88;;
37701;SDS011;23548;51.196;6.838;2023-08-20T04:28:07;22.10;;;15.30;;
37701;SDS011;23548;51.196;6.838;2023-08-20T04:30:34;22.95;;;14.90;;
37701;SDS011;23548;51.196;6.838;2023-08-20T04:33:01;20.17;;;15.50;;
37701;SDS011;23548;51.196;6.838;2023-08-20T04:35:26;22.50;;;15.45;;
37701;SDS011;23548;51.196;6.838;2023-08-20T04:37:52;24.25;;;15.55;;
37701;SDS011;23548;51.196;6.838;2023-08-20T04:40:18;21.80;;;15.32;;
37701;SDS011;23548;51.196;6.838;2023-08-20T04:42:44;25.02;;;14.75;;
37701;SDS011;23548;51.196;6.838;2023-08-20T04:45:10;19.92;;;15.32;;
37701;SDS011;23548;51.196;6.838;2023-08-20T04:47:36;21.13;;;15.55;;
37701;SDS011;23548;51.196;6.838;2023-08-20T04:50:03;24.65;;;14.88;;
37701;SDS011;23548;51.196;6.838;2023-08-20T04:52:32;17.52;;;14.98;;
37701;SDS011;23548;51.196;6.838;2023-08-20T04:54:58;21.65;;;14.77;;
37701;SDS011;23548;51.196;6.838;2023-08-20T04:57:24;19.10;;;14.90;;
37701;SDS011;23548;51.196;6.838;2023-08-20T04:59:50;23.67;;;14.68;;
37701;SDS011;23548;51.196;6.838;2023-08-20T05:02:15;20.63;;;14.32;;
37701;SDS011;23548;51.196;6.838;2023-08-20T05:04:41;17.83;;;13.73;;
37701;SDS011;23548;51.196;6.838;2023-08-20T05:07:07;20.00;;;14.65;;
37701;SDS011;23548;51.196;6.838;2023-08-20T05:09:33;17.95;;;14.57;;
37701;SDS011;23548;51.196;6.838;2023-08-20T05:11:59;26.15;;;15.05;;
37701;SDS011;23548;51.196;6.838;2023-08-20T05:14:24;22.08;;;14.55;;
37701;SDS011;23548;51.196;6.838;2023-08-20T05:16:50;21.63;;;15.02;;
37701;SDS011;23548;51.196;6.838;2023-08-20T05:19:16;21.05;;;15.40;;
37701;SDS011;23548;51.196;6.838;2023-08-20T05:21:42;23.45;;;15.70;;
37701;SDS011;23548;51.196;6.838;2023-08-20T05:24:07;25.08;;;15.85;;
37701;SDS011;23548;51.196;6.838;2023-08-20T05:26:34;21.55;;;15.38;;
37701;SDS011;23548;51.196;6.838;2023-08-20T05:29:00;20.92;;;15.20;;
37701;SDS011;23548;51.196;6.838;2023-08-20T05:31:26;23.70;;;17.05;;
37701;SDS011;23548;51.196;6.838;2023-08-20T05:33:51;21.63;;;15.88;;
37701;SDS011;23548;51.196;6.838;2023-08-20T05:36:17;20.45;;;16.15;;
37701;SDS011;23548;51.196;6.838;2023-08-20T05:38:43;18.70;;;15.23;;
37701;SDS011;23548;51.196;6.838;2023-08-20T05:41:09;21.55;;;15.93;;
37701;SDS011;23548;51.196;6.838;2023-08-20T05:43:35;18.20;;;14.70;;
37701;SDS011;23548;51.196;6.838;2023-08-20T05:46:03;23.73;;;16.58;;
37701;SDS011;23548;51.196;6.838;2023-08-20T05:48:29;19.15;;;14.77;;
37701;SDS011;23548;51.196;6.838;2023-08-20T05:50:55;21.67;;;15.35;;
37701;SDS011;23548;51.196;6.838;2023-08-20T05:53:23;25.50;;;16.00;;
37701;SDS011;23548;51.196;6.838;2023-08-20T05:55:49;23.38;;;16.70;;
37701;SDS011;23548;51.196;6.838;2023-08-20T05:58:15;24.42;;;15.95;;
37701;SDS011;23548;51.196;6.838;2023-08-20T06:00:41;22.45;;;15.25;;
37701;SDS011;23548;51.196;6.838;2023-08-20T06:03:07;24.17;;;16.55;;
37701;SDS011;23548;51.196;6.838;2023-08-20T06:05:35;25.67;;;17.27;;
37701;SDS011;23548;51.196;6.838;2023-08-20T06:08:01;23.83;;;18.27;;
37701;SDS011;23548;51.196;6.838;2023-08-20T06:10:27;22.00;;;15.93;;
37701;SDS011;23548;51.196;6.838;2023-08-20T06:12:53;23.58;;;16.20;;
37701;SDS011;23548;51.196;6.838;2023-08-20T06:15:19;23.05;;;15.70;;
37701;SDS011;23548;51.196;6.838;2023-08-20T06:17:44;22.33;;;16.63;;
37701;SDS011;23548;51.196;6.838;2023-08-20T06:20:10;26.48;;;17.13;;
37701;SDS011;23548;51.196;6.838;2023-08-20T06:22:37;24.85;;;17.30;;
37701;SDS011;23548;51.196;6.838;2023-08-20T06:25:03;21.13;;;16.73;;
37701;SDS011;23548;51.196;6.838;2023-08-20T06:27:30;20.35;;;16.13;;
37701;SDS011;23548;51.196;6.838;2023-08-20T06:29:55;19.83;;;15.32;;
37701;SDS011;23548;51.196;6.838;2023-08-20T06:32:21;20.67;;;15.95;;
37701;SDS011;23548;51.196;6.838;2023-08-20T06:34:48;25.92;;;18.23;;
37701;SDS011;23548;51.196;6.838;2023-08-20T06:37:13;19.30;;;15.50;;
37701;SDS011;23548;51.196;6.838;2023-08-20T06:39:39;20.70;;;15.57;;
37701;SDS011;23548;51.196;6.838;2023-08-20T06:42:05;21.20;;;16.08;;
37701;SDS011;23548;51.196;6.838;2023-08-20T06:44:31;20.83;;;15.07;;
37701;SDS011;23548;51.196;6.838;2023-08-20T06:46:56;25.60;;;16.27;;
37701;SDS011;23548;51.196;6.838;2023-08-20T06:49:22;22.55;;;15.82;;
37701;SDS011;23548;51.196;6.838;2023-08-20T06:51:48;21.33;;;15.43;;
37701;SDS011;23548;51.196;6.838;2023-08-20T06:54:14;22.80;;;17.23;;
37701;SDS011;23548;51.196;6.838;2023-08-20T06:56:41;21.38;;;16.52;;
37701;SDS011;23548;51.196;6.838;2023-08-20T06:59:06;24.27;;;16.63;;
37701;SDS011;23548;51.196;6.838;2023-08-20T07:01:32;23.58;;;17.95;;
37701;SDS011;23548;51.196;6.838;2023-08-20T07:03:58;23.60;;;16.92;;
37701;SDS011;23548;51.196;6.838;2023-08-20T07:06:24;23.65;;;17.17;;
37701;SDS011;23548;51.196;6.838;2023-08-20T07:08:50;20.80;;;16.08;;
37701;SDS011;23548;51.196;6.838;2023-08-20T07:11:16;22.88;;;17.05;;
37701;SDS011;23548;51.196;6.838;2023-08-20T07:13:42;21.33;;;16.52;;
37701;SDS011;23548;51.196;6.838;2023-08-20T07:16:07;24.58;;;17.98;;
37701;SDS011;23548;51.196;6.838;2023-08-20T07:18:33;24.95;;;19.73;;
37701;SDS011;23548;51.196;6.838;2023-08-20T07:20:59;20.70;;;17.77;;
37701;SDS011;23548;51.196;6.838;2023-08-20T07:23:25;24.67;;;18.63;;
37701;SDS011;23548;51.196;6.838;2023-08-20T07:25:51;28.52;;;18.63;;
37701;SDS011;23548;51.196;6.838;2023-08-20T07:28:29;26.15;;;20.08;;
37701;SDS011;23548;51.196;6.838;2023-08-20T07:31:14;25.95;;;17.88;;
37701;SDS011;23548;51.196;6.838;2023-08-20T07:33:40;31.80;;;20.52;;
37701;SDS011;23548;51.196;6.838;2023-08-20T07:36:06;27.95;;;20.50;;
37701;SDS011;23548;51.196;6.838;2023-08-20T07:38:32;25.02;;;19.73;;
37701;SDS011;23548;51.196;6.838;2023-08-20T07:40:57;28.10;;;19.27;;
37701;SDS011;23548;51.196;6.838;2023-08-20T07:43:24;22.70;;;16.42;;
37701;SDS011;23548;51.196;6.838;2023-08-20T07:45:50;23.05;;;17.27;;
37701;SDS011;23548;51.196;6.838;2023-08-20T07:48:15;19.85;;;16.02;;
37701;SDS011;23548;51.196;6.838;2023-08-20T07:50:41;19.73;;;16.77;;
37701;SDS011;23548;51.196;6.838;2023-08-20T07:53:07;27.67;;;20.25;;
37701;SDS011;23548;51.196;6.838;2023-08-20T07:55:32;25.05;;;17.55;;
37701;SDS011;23548;51.196;6.838;2023-08-20T07:57:58;22.77;;;16.85;;
37701;SDS011;23548;51.196;6.838;2023-08-20T08:00:25;22.92;;;17.10;;
37701;SDS011;23548;51.196;6.838;2023-08-20T08:02:51;21.17;;;17.67;;
37701;SDS011;23548;51.196;6.838;2023-08-20T08:05:16;21.65;;;17.00;;
37701;SDS011;23548;51.196;6.838;2023-08-20T08:07:42;20.10;;;15.75;;
37701;SDS011;23548;51.196;6.838;2023-08-20T08:10:08;24.45;;;17.92;;
37701;SDS011;23548;51.196;6.838;2023-08-20T08:12:34;24.33;;;17.08;;
37701;SDS011;23548;51.196;6.838;2023-08-20T08:15:00;18.85;;;15.70;;
37701;SDS011;23548;51.196;6.838;2023-08-20T08:17:26;20.52;;;16.17;;
37701;SDS011;23548;51.196;6.838;2023-08-20T08:19:52;21.63;;;15.75;;
37701;SDS011;23548;51.196;6.838;2023-08-20T08:22:20;20.33;;;15.95;;
37701;SDS011;23548;51.196;6.838;2023-08-20T08:24:46;18.70;;;15.43;;
37701;SDS011;23548;51.196;6.838;2023-08-20T08:27:11;19.95;;;15.77;;
37701;SDS011;23548;51.196;6.838;2023-08-20T08:29:37;16.73;;;14.57;;
37701;SDS011;23548;51.196;6.838;2023-08-20T08:32:03;19.85;;;14.50;;
37701;SDS011;23548;51.196;6.838;2023-08-20T08:34:29;18.63;;;14.57;;
37701;SDS011;23548;51.196;6.838;2023-08-20T08:36:54;17.60;;;14.15;;
37701;SDS011;23548;51.196;6.838;2023-08-20T08:39:20;15.60;;;13.40;;
37701;SDS011;23548;51.196;6.838;2023-08-20T08:41:47;17.88;;;14.27;;
37701;SDS011;23548;51.196;6.838;2023-08-20T08:44:16;18.45;;;14.07;;
37701;SDS011;23548;51.196;6.838;2023-08-20T08:46:42;19.08;;;14.25;;
37701;SDS011;23548;51.196;6.838;2023-08-20T08:49:08;18.08;;;12.77;;
37701;SDS011;23548;51.196;6.838;2023-08-20T08:51:34;14.68;;;11.55;;
37701;SDS011;23548;51.196;6.838;2023-08-20T08:54:02;12.65;;;9.95;;
37701;SDS011;23548;51.196;6.838;2023-08-20T08:56:28;14.05;;;10.23;;
37701;SDS011;23548;51.196;6.838;2023-08-20T08:58:54;11.18;;;8.63;;
37701;SDS011;23548;51.196;6.838;2023-08-20T09:01:20;13.13;;;10.30;;
37701;SDS011;23548;51.196;6.838;2023-08-20T09:03:47;9.88;;;6.93;;
37701;SDS011;23548;51.196;6.838;2023-08-20T09:06:12;9.90;;;7.80;;
37701;SDS011;23548;51.196;6.838;2023-08-20T09:08:38;13.73;;;10.93;;
37701;SDS011;23548;51.196;6.838;2023-08-20T09:11:04;10.10;;;9.00;;
37701;SDS011;23548;51.196;6.838;2023-08-20T09:16:07;11.75;;;8.88;;
37701;SDS011;23548;51.196;6.838;2023-08-20T09:18:45;13.75;;;8.73;;
37701;SDS011;23548;51.196;6.838;2023-08-20T09:21:12;10.65;;;8.55;;
37701;SDS011;23548;51.196;6.838;2023-08-20T09:23:39;8.15;;;7.35;;
37701;SDS011;23548;51.196;6.838;2023-08-20T09:26:05;10.48;;;9.07;;
37701;SDS011;23548;51.196;6.838;2023-08-20T09:28:41;9.27;;;7.25;;
37701;SDS011;23548;51.196;6.838;2023-08-20T09:31:13;9.70;;;7.65;;
37701;SDS011;23548;51.196;6.838;2023-08-20T09:33:49;10.10;;;8.32;;
37701;SDS011;23548;51.196;6.838;2023-08-20T09:36:18;11.60;;;8.38;;
37701;SDS011;23548;51.196;6.838;2023-08-20T09:38:54;10.25;;;8.15;;
37701;SDS011;23548;51.196;6.838;2023-08-20T09:41:20;13.35;;;8.57;;
37701;SDS011;23548;51.196;6.838;2023-08-20T09:43:48;9.88;;;7.78;;
37701;SDS011;23548;51.196;6.838;2023-08-20T09:46:20;9.63;;;8.57;;
37701;SDS011;23548;51.196;6.838;2023-08-20T09:48:50;9.95;;;8.45;;
37701;SDS011;23548;51.196;6.838;2023-08-20T09:51:24;13.20;;;9.85;;
37701;SDS011;23548;51.196;6.838;2023-08-20T09:54:02;13.00;;;9.00;;
37701;SDS011;23548;51.196;6.838;2023-08-20T09:56:38;10.50;;;8.63;;
37701;SDS011;23548;51.196;6.838;2023-08-20T09:59:04;11.73;;;8.70;;
37701;SDS011;23548;51.196;6.838;2023-08-20T10:01:31;10.70;;;9.55;;
37701;SDS011;23548;51.196;6.838;2023-08-20T10:03:58;8.98;;;7.85;;
37701;SDS011;23548;51.196;6.838;2023-08-20T10:06:24;11.25;;;8.20;;
37701;SDS011;23548;51.196;6.838;2023-08-20T10:08:51;14.57;;;9.60;;
37701;SDS011;23548;51.196;6.838;2023-08-20T10:11:17;8.65;;;7.05;;
37701;SDS011;23548;51.196;6.838;2023-08-20T10:13:43;9.52;;;7.32;;
37701;SDS011;23548;51.196;6.838;2023-08-20T10:16:12;8.93;;;6.45;;
37701;SDS011;23548;51.196;6.838;2023-08-20T10:18:39;7.68;;;6.30;;
37701;SDS011;23548;51.196;6.838;2023-08-20T10:21:05;10.60;;;6.03;;
37701;SDS011;23548;51.196;6.838;2023-08-20T10:23:33;10.95;;;6.53;;
37701;SDS011;23548;51.196;6.838;2023-08-20T10:26:09;11.10;;;6.50;;
37701;SDS011;23548;51.196;6.838;2023-08-20T10:28:35;9.07;;;7.00;;
37701;SDS011;23548;51.196;6.838;2023-08-20T10:36:13;7.63;;;6.93;;
37701;SDS011;23548;51.196;6.838;2023-08-20T10:38:42;11.88;;;7.93;;
37701;SDS011;23548;51.196;6.838;2023-08-20T10:41:10;12.38;;;7.28;;
37701;SDS011;23548;51.196;6.838;2023-08-20T10:43:40;7.40;;;6.68;;
37701;SDS011;23548;51.196;6.838;2023-08-20T10:46:18;10.00;;;7.50;;
37701;SDS011;23548;51.196;6.838;2023-08-20T10:48:50;7.97;;;7.03;;
37701;SDS011;23548;51.196;6.838;2023-08-20T10:51:24;10.85;;;7.93;;
37701;SDS011;23548;51.196;6.838;2023-08-20T10:59:22;15.70;;;9.57;;
37701;SDS011;23548;51.196;6.838;2023-08-20T11:01:51;11.80;;;9.30;;
37701;SDS011;23548;51.196;6.838;2023-08-20T11:04:19;12.80;;;8.52;;
37701;SDS011;23548;51.196;6.838;2023-08-20T11:06:46;10.50;;;8.40;;
37701;SDS011;23548;51.196;6.838;2023-08-20T11:09:14;13.68;;;8.60;;
37701;SDS011;23548;51.196;6.838;2023-08-20T11:11:41;11.48;;;8.45;;
37701;SDS011;23548;51.196;6.838;2023-08-20T11:14:08;10.48;;;8.80;;
37701;SDS011;23548;51.196;6.838;2023-08-20T11:16:40;8.35;;;7.55;;
37701;SDS011;23548;51.196;6.838;2023-08-20T11:19:08;8.90;;;6.88;;
37701;SDS011;23548;51.196;6.838;2023-08-20T11:21:41;10.50;;;8.13;;
37701;SDS011;23548;51.196;6.838;2023-08-20T11:24:07;8.30;;;7.43;;
37701;SDS011;23548;51.196;6.838;2023-08-20T11:26:34;11.77;;;8.20;;
37701;SDS011;23548;51.196;6.838;2023-08-20T11:29:06;11.40;;;7.22;;
37701;SDS011;23548;51.196;6.838;2023-08-20T11:31:37;7.82;;;6.47;;
37701;SDS011;23548;51.196;6.838;2023-08-20T11:34:04;6.97;;;6.35;;
37701;SDS011;23548;51.196;6.838;2023-08-20T11:36:30;9.73;;;7.30;;
37701;SDS011;23548;51.196;6.838;2023-08-20T11:38:56;8.30;;;7.53;;
37701;SDS011;23548;51.196;6.838;2023-08-20T11:41:23;9.25;;;7.50;;
37701;SDS011;23548;51.196;6.838;2023-08-20T11:43:52;8.27;;;7.05;;
37701;SDS011;23548;51.196;6.838;2023-08-20T11:46:22;8.55;;;7.50;;
37701;SDS011;23548;51.196;6.838;2023-08-20T11:49:01;8.38;;;6.88;;
37701;SDS011;23548;51.196;6.838;2023-08-20T11:51:28;7.97;;;7.15;;
37701;SDS011;23548;51.196;6.838;2023-08-20T11:53:57;9.27;;;7.32;;
37701;SDS011;23548;51.196;6.838;2023-08-20T11:56:23;9.30;;;7.80;;
37701;SDS011;23548;51.196;6.838;2023-08-20T11:58:51;9.10;;;7.60;;
37701;SDS011;23548;51.196;6.838;2023-08-20T12:01:18;7.80;;;7.03;;
37701;SDS011;23548;51.196;6.838;2023-08-20T12:03:44;10.60;;;8.55;;
37701;SDS011;23548;51.196;6.838;2023-08-20T12:06:20;11.38;;;9.10;;
37701;SDS011;23548;51.196;6.838;2023-08-20T12:08:47;11.50;;;10.30;;
37701;SDS011;23548;51.196;6.838;2023-08-20T12:11:13;10.95;;;9.80;;
37701;SDS011;23548;51.196;6.838;2023-08-20T12:13:40;10.93;;;9.75;;
37701;SDS011;23548;51.196;6.838;2023-08-20T12:16:06;9.85;;;8.93;;
37701;SDS011;23548;51.196;6.838;2023-08-20T12:18:32;12.80;;;10.32;;
37701;SDS011;23548;51.196;6.838;2023-08-20T12:20:57;10.77;;;9.68;;
37701;SDS011;23548;51.196;6.838;2023-08-20T12:23:23;10.57;;;9.48;;
37701;SDS011;23548;51.196;6.838;2023-08-20T12:25:50;12.20;;;11.00;;
37701;SDS011;23548;51.196;6.838;2023-08-20T12:28:16;13.10;;;11.43;;
37701;SDS011;23548;51.196;6.838;2023-08-20T12:30:42;12.63;;;11.30;;
37701;SDS011;23548;51.196;6.838;2023-08-20T12:33:09;11.77;;;10.57;;
37701;SDS011;23548;51.196;6.838;2023-08-20T12:35:36;12.45;;;10.45;;
37701;SDS011;23548;51.196;6.838;2023-08-20T12:38:01;11.88;;;10.10;;
37701;SDS011;23548;51.196;6.838;2023-08-20T12:40:28;10.05;;;9.15;;
37701;SDS011;23548;51.196;6.838;2023-08-20T12:42:54;10.70;;;9.50;;
37701;SDS011;23548;51.196;6.838;2023-08-20T12:45:20;11.10;;;9.57;;
37701;SDS011;23548;51.196;6.838;2023-08-20T12:47:46;10.25;;;9.25;;
37701;SDS011;23548;51.196;6.838;2023-08-20T12:50:12;10.88;;;9.88;;
37701;SDS011;23548;51.196;6.838;2023-08-20T12:52:39;9.02;;;8.23;;
37701;SDS011;23548;51.196;6.838;2023-08-20T12:55:06;9.85;;;8.85;;
37701;SDS011;23548;51.196;6.838;2023-08-20T12:57:34;11.82;;;8.85;;
37701;SDS011;23548;51.196;6.838;2023-08-20T13:00:00;10.25;;;8.88;;
37701;SDS011;23548;51.196;6.838;2023-08-20T13:02:32;10.05;;;9.05;;
37701;SDS011;23548;51.196;6.838;2023-08-20T13:04:58;10.82;;;8.43;;
37701;SDS011;23548;51.196;6.838;2023-08-20T13:07:24;10.07;;;9.10;;
37701;SDS011;23548;51.196;6.838;2023-08-20T13:09:50;12.55;;;8.82;;
37701;SDS011;23548;51.196;6.838;2023-08-20T13:12:16;10.50;;;8.40;;
37701;SDS011;23548;51.196;6.838;2023-08-20T13:14:47;9.25;;;8.25;;
37701;SDS011;23548;51.196;6.838;2023-08-20T13:17:14;9.63;;;8.73;;
37701;SDS011;23548;51.196;6.838;2023-08-20T13:19:40;13.80;;;7.95;;
37701;SDS011;23548;51.196;6.838;2023-08-20T13:22:06;9.25;;;8.32;;
37701;SDS011;23548;51.196;6.838;2023-08-20T13:24:32;9.95;;;8.32;;
37701;SDS011;23548;51.196;6.838;2023-08-20T13:26:58;10.25;;;8.68;;
37701;SDS011;23548;51.196;6.838;2023-08-20T13:29:23;8.40;;;7.60;;
37701;SDS011;23548;51.196;6.838;2023-08-20T13:31:49;9.52;;;8.52;;
37701;SDS011;23548;51.196;6.838;2023-08-20T13:34:15;11.38;;;8.63;;
37701;SDS011;23548;51.196;6.838;2023-08-20T13:36:41;10.02;;;8.43;;
37701;SDS011;23548;51.196;6.838;2023-08-20T13:39:07;9.80;;;7.88;;
37701;SDS011;23548;51.196;6.838;2023-08-20T13:41:32;9.90;;;8.90;;
37701;SDS011;23548;51.196;6.838;2023-08-20T13:43:58;9.00;;;8.00;;
37701;SDS011;23548;51.196;6.838;2023-08-20T13:46:24;9.05;;;7.88;;
37701;SDS011;23548;51.196;6.838;2023-08-20T13:48:50;9.27;;;8.40;;
37701;SDS011;23548;51.196;6.838;2023-08-20T13:51:15;7.90;;;7.20;;
37701;SDS011;23548;51.196;6.838;2023-08-20T13:53:41;8.07;;;7.38;;
37701;SDS011;23548;51.196;6.838;2023-08-20T13:56:07;7.70;;;6.90;;
37701;SDS011;23548;51.196;6.838;2023-08-20T13:58:32;7.80;;;6.90;;
37701;SDS011;23548;51.196;6.838;2023-08-20T14:00:58;9.00;;;7.53;;
37701;SDS011;23548;51.196;6.838;2023-08-20T14:03:24;9.55;;;6.88;;
37701;SDS011;23548;51.196;6.838;2023-08-20T14:05:50;8.77;;;7.88;;
37701;SDS011;23548;51.196;6.838;2023-08-20T14:08:15;7.85;;;7.07;;
37701;SDS011;23548;51.196;6.838;2023-08-20T14:10:41;7.78;;;6.97;;
37701;SDS011;23548;51.196;6.838;2023-08-20T14:13:07;10.35;;;7.50;;
37701;SDS011;23548;51.196;6.838;2023-08-20T14:15:33;7.70;;;6.90;;
37701;SDS011;23548;51.196;6.838;2023-08-20T14:17:58;8.52;;;6.28;;
37701;SDS011;23548;51.196;6.838;2023-08-20T14:20:24;7.75;;;6.70;;
37701;SDS011;23548;51.196;6.838;2023-08-20T14:22:50;7.45;;;6.72;;
37701;SDS011;23548;51.196;6.838;2023-08-20T14:25:16;7.28;;;6.57;;
37701;SDS011;23548;51.196;6.838;2023-08-20T14:27:41;8.25;;;6.78;;
37701;SDS011;23548;51.196;6.838;2023-08-20T14:30:07;7.70;;;5.97;;
37701;SDS011;23548;51.196;6.838;2023-08-20T14:32:33;8.30;;;6.55;;
37701;SDS011;23548;51.196;6.838;2023-08-20T14:34:59;8.13;;;6.30;;
37701;SDS011;23548;51.196;6.838;2023-08-20T14:37:25;7.95;;;5.90;;
37701;SDS011;23548;51.196;6.838;2023-08-20T14:39:51;6.68;;;6.03;;
37701;SDS011;23548;51.196;6.838;2023-08-20T14:42:17;7.95;;;6.22;;
37701;SDS011;23548;51.196;6.838;2023-08-20T14:44:43;7.15;;;6.00;;
37701;SDS011;23548;51.196;6.838;2023-08-20T14:47:09;6.40;;;5.53;;
37701;SDS011;23548;51.196;6.838;2023-08-20T14:49:35;6.85;;;5.80;;
37701;SDS011;23548;51.196;6.838;2023-08-20T14:52:03;7.70;;;5.80;;